createdAt,value
2023-01-19T00:00:50.525Z,97852.59
2023-01-19T00:03:18.409Z,97841.66
2023-01-19T00:05:46.159Z,97843.56
2023-01-19T00:08:15.059Z,97841.81
2023-01-19T00:10:49.820Z,97839.94
2023-01-19T00:13:17.554Z,97829.84
2023-01-19T00:15:45.888Z,97835.38
2023-01-19T00:18:13.557Z,97829.97
2023-01-19T00:20:41.619Z,97838.13
2023-01-19T00:23:09.766Z,97831.00
2023-01-19T00:25:38.177Z,97837.03
2023-01-19T00:28:06.031Z,97838.22
2023-01-19T00:30:34.233Z,97836.63
2023-01-19T00:33:02.224Z,97832.16
2023-01-19T00:35:30.105Z,97830.44
2023-01-19T00:37:58.781Z,97828.87
2023-01-19T00:40:26.516Z,97816.34
2023-01-19T00:42:54.472Z,97811.97
2023-01-19T00:45:23.864Z,97819.78
2023-01-19T00:47:52.220Z,97814.16
2023-01-19T00:50:20.126Z,97804.75
2023-01-19T00:52:47.981Z,97802.72
2023-01-19T00:55:16.168Z,97795.19
2023-01-19T00:57:43.758Z,97791.88
2023-01-19T01:00:16.266Z,97806.50
2023-01-19T01:02:44.663Z,97809.47
2023-01-19T01:05:12.984Z,97806.31
2023-01-19T01:07:41.735Z,97803.53
2023-01-19T01:10:11.435Z,97806.84
2023-01-19T01:12:39.639Z,97801.91
2023-01-19T01:15:09.193Z,97790.34
2023-01-19T01:17:37.397Z,97785.81
2023-01-19T01:20:05.960Z,97778.75
2023-01-19T01:22:33.568Z,97753.88
2023-01-19T01:25:01.138Z,97769.50
2023-01-19T01:27:29.061Z,97769.06
2023-01-19T01:29:56.865Z,97760.44
2023-01-19T01:32:24.532Z,97765.19
2023-01-19T01:34:52.487Z,97770.47
2023-01-19T01:37:20.203Z,97775.47
2023-01-19T01:39:47.867Z,97774.84
2023-01-19T01:42:18.352Z,97769.50
2023-01-19T01:44:51.900Z,97770.31
2023-01-19T01:47:36.837Z,97788.44
2023-01-19T01:50:10.665Z,97790.03
2023-01-19T01:53:06.989Z,97794.69
2023-01-19T01:55:42.282Z,97779.88
2023-01-19T01:58:10.768Z,97775.50
2023-01-19T02:00:39.083Z,97777.47
2023-01-19T02:03:07.414Z,97767.06
2023-01-19T02:05:35.646Z,97785.81
2023-01-19T02:08:13.225Z,97790.66
2023-01-19T02:10:42.395Z,97797.78
2023-01-19T02:13:10.325Z,97808.25
2023-01-19T02:15:37.911Z,97795.38
2023-01-19T02:18:06.126Z,97784.59
2023-01-19T02:20:35.894Z,97760.63
2023-01-19T02:23:07.948Z,97754.81
2023-01-19T02:25:35.818Z,97757.22
2023-01-19T02:28:03.500Z,97767.13
2023-01-19T02:30:31.347Z,97784.63
2023-01-19T02:32:59.641Z,97795.75
2023-01-19T02:35:27.490Z,97798.47
2023-01-19T02:37:55.872Z,97806.03
2023-01-19T02:40:24.236Z,97800.94
2023-01-19T02:42:53.166Z,97785.59
2023-01-19T02:45:22.180Z,97781.00
2023-01-19T02:47:51.972Z,97761.66
2023-01-19T02:50:45.258Z,97750.69
2023-01-19T02:53:24.634Z,97760.22
2023-01-19T02:56:18.815Z,97769.75
2023-01-19T02:59:14.418Z,97767.72
2023-01-19T03:01:58.397Z,97792.13
2023-01-19T03:04:41.567Z,97800.56
2023-01-19T03:07:20.009Z,97815.41
2023-01-19T03:10:14.129Z,97817.31
2023-01-19T03:12:50.026Z,97812.31
2023-01-19T03:15:29.508Z,97811.47
2023-01-19T03:17:58.263Z,97811.59
2023-01-19T03:20:26.910Z,97819.28
2023-01-19T03:23:03.177Z,97836.31
2023-01-19T03:25:35.368Z,97834.75
2023-01-19T03:28:03.700Z,97831.22
2023-01-19T03:30:38.450Z,97839.97
2023-01-19T03:33:17.029Z,97829.09
2023-01-19T03:35:48.908Z,97825.47
2023-01-19T03:38:21.195Z,97796.91
2023-01-19T03:40:49.839Z,97756.78
2023-01-19T03:43:18.251Z,97744.09
2023-01-19T03:45:46.100Z,97752.16
2023-01-19T03:48:14.663Z,97761.81
2023-01-19T03:50:42.479Z,97766.72
2023-01-19T03:53:12.747Z,97768.72
2023-01-19T03:55:42.638Z,97757.59
2023-01-19T03:58:10.369Z,97748.25
2023-01-19T04:00:38.311Z,97766.28
2023-01-19T04:03:10.786Z,97774.13
2023-01-19T04:05:38.575Z,97780.34
2023-01-19T04:08:07.506Z,97779.94
2023-01-19T04:10:35.315Z,97775.53
2023-01-19T04:13:04.174Z,97768.13
2023-01-19T04:15:32.415Z,97755.06
2023-01-19T04:18:01.003Z,97765.78
2023-01-19T04:20:29.129Z,97767.75
2023-01-19T04:23:01.563Z,97764.84
2023-01-19T04:25:29.539Z,97755.06
2023-01-19T04:27:57.550Z,97763.13
2023-01-19T04:30:26.022Z,97773.53
2023-01-19T04:32:53.727Z,97788.13
2023-01-19T04:35:21.635Z,97788.81
2023-01-19T04:37:49.311Z,97802.28
2023-01-19T04:40:17.036Z,97783.59
2023-01-19T04:42:45.106Z,97782.59
2023-01-19T04:45:13.693Z,97780.06
2023-01-19T04:47:41.450Z,97783.59
2023-01-19T04:50:11.059Z,97787.34
2023-01-19T04:52:38.680Z,97785.69
2023-01-19T04:55:07.113Z,97772.38
2023-01-19T04:57:35.087Z,97763.25
2023-01-19T05:00:04.715Z,97763.66
2023-01-19T05:02:32.697Z,97785.66
2023-01-19T05:05:01.007Z,97793.63
2023-01-19T05:07:29.152Z,97790.66
2023-01-19T05:09:56.835Z,97786.94
2023-01-19T05:12:24.845Z,97795.69
2023-01-19T05:14:52.507Z,97816.13
2023-01-19T05:17:20.202Z,97802.66
2023-01-19T05:19:48.113Z,97800.69
2023-01-19T05:22:16.346Z,97806.97
2023-01-19T05:24:44.001Z,97809.81
2023-01-19T05:27:12.778Z,97837.44
2023-01-19T05:29:40.721Z,97844.03
2023-01-19T05:32:09.096Z,97839.41
2023-01-19T05:34:36.973Z,97844.03
2023-01-19T05:37:04.788Z,97858.16
2023-01-19T05:39:32.490Z,97862.50
2023-01-19T05:42:00.481Z,97864.22
2023-01-19T05:44:28.053Z,97855.47
2023-01-19T05:46:55.823Z,97844.87
2023-01-19T05:49:23.848Z,97834.78
2023-01-19T05:51:51.486Z,97835.91
2023-01-19T05:54:19.385Z,97841.91
2023-01-19T05:56:47.585Z,97830.53
2023-01-19T05:59:15.179Z,97827.03
2023-01-19T06:01:43.867Z,97809.25
2023-01-19T06:04:12.087Z,97806.53
2023-01-19T06:06:40.025Z,97803.00
2023-01-19T06:09:08.206Z,97809.78
2023-01-19T06:11:36.533Z,97813.50
2023-01-19T06:14:04.410Z,97815.97
2023-01-19T06:16:32.153Z,97807.13
2023-01-19T06:19:01.739Z,97807.13
2023-01-19T06:21:37.422Z,97816.72
2023-01-19T06:24:09.962Z,97841.91
2023-01-19T06:26:40.384Z,97842.47
2023-01-19T06:29:09.605Z,97835.87
2023-01-19T06:31:37.173Z,97842.47
2023-01-19T06:34:05.155Z,97840.31
2023-01-19T06:36:33.112Z,97823.50
2023-01-19T06:39:03.536Z,97813.66
2023-01-19T06:41:34.751Z,97821.09
2023-01-19T06:44:03.282Z,97821.31
2023-01-19T06:46:32.005Z,97839.72
2023-01-19T06:48:59.640Z,97848.66
2023-01-19T06:51:27.530Z,97841.47
2023-01-19T06:53:55.174Z,97843.06
2023-01-19T06:56:22.804Z,97843.53
2023-01-19T06:58:51.635Z,97840.94
2023-01-19T07:01:19.765Z,97838.91
2023-01-19T07:03:47.528Z,97840.12
2023-01-19T07:06:15.483Z,97845.25
2023-01-19T07:08:43.072Z,97843.37
2023-01-19T07:11:24.922Z,97845.56
2023-01-19T07:13:58.866Z,97850.19
2023-01-19T07:16:26.661Z,97853.16
2023-01-19T07:18:54.372Z,97848.62
2023-01-19T07:21:23.294Z,97841.72
2023-01-19T07:23:52.075Z,97835.63
2023-01-19T07:26:19.919Z,97837.09
2023-01-19T07:28:48.434Z,97841.50
2023-01-19T07:31:16.458Z,97844.37
2023-01-19T07:33:44.866Z,97842.22
2023-01-19T07:36:12.843Z,97837.91
2023-01-19T07:38:40.552Z,97859.63
2023-01-19T07:41:10.018Z,97866.13
2023-01-19T07:43:38.090Z,97871.16
2023-01-19T07:46:06.655Z,97890.94
2023-01-19T07:48:34.603Z,97892.97
2023-01-19T07:51:03.709Z,97890.03
2023-01-19T07:53:31.814Z,97889.44
2023-01-19T07:55:59.353Z,97891.31
2023-01-19T07:58:27.570Z,97889.84
2023-01-19T08:00:55.241Z,97893.28
2023-01-19T08:03:23.204Z,97888.66
2023-01-19T08:05:53.632Z,97886.97
2023-01-19T08:08:21.493Z,97874.50
2023-01-19T08:10:50.686Z,97875.56
2023-01-19T08:13:18.725Z,97868.78
2023-01-19T08:15:49.835Z,97870.25
2023-01-19T08:18:17.855Z,97870.75
2023-01-19T08:20:45.479Z,97871.16
2023-01-19T08:23:13.219Z,97868.78
2023-01-19T08:25:42.873Z,97872.91
2023-01-19T08:28:14.801Z,97879.31
2023-01-19T08:30:44.017Z,97885.69
2023-01-19T08:33:12.720Z,97882.47
2023-01-19T08:35:42.527Z,97888.53
2023-01-19T08:38:10.808Z,97889.94
2023-01-19T08:40:39.792Z,97901.66
2023-01-19T08:43:10.686Z,97905.16
2023-01-19T08:45:41.072Z,97906.84
2023-01-19T08:48:08.709Z,97906.75
2023-01-19T08:50:36.273Z,97909.62
2023-01-19T08:53:04.253Z,97917.75
2023-01-19T08:55:34.108Z,97913.25
2023-01-19T08:58:02.577Z,97910.97
2023-01-19T09:00:31.596Z,97916.16
2023-01-19T09:03:00.995Z,97908.78
2023-01-19T09:05:30.574Z,97913.50
2023-01-19T09:07:58.798Z,97909.94
2023-01-19T09:10:26.754Z,97906.81
2023-01-19T09:12:54.411Z,97904.66
2023-01-19T09:15:22.509Z,97902.00
2023-01-19T09:17:52.300Z,97891.84
2023-01-19T09:20:20.012Z,97884.09
2023-01-19T09:22:48.042Z,97881.06
2023-01-19T09:25:15.820Z,97883.97
2023-01-19T09:27:43.849Z,97884.06
2023-01-19T09:30:12.347Z,97887.94
2023-01-19T09:32:40.669Z,97890.50
2023-01-19T09:35:09.228Z,97883.59
2023-01-19T09:37:37.339Z,97892.03
2023-01-19T09:40:06.593Z,97895.97
2023-01-19T09:42:43.791Z,97896.28
2023-01-19T09:45:17.446Z,97896.72
2023-01-19T09:47:45.865Z,97897.31
2023-01-19T09:50:26.384Z,97893.19
2023-01-19T09:53:01.046Z,97897.50
2023-01-19T09:55:29.546Z,97901.84
2023-01-19T09:57:57.229Z,97909.19
2023-01-19T10:00:25.749Z,97901.41
2023-01-19T10:02:59.701Z,97896.06
2023-01-19T10:05:40.013Z,97904.13
2023-01-19T10:08:14.672Z,97908.84
2023-01-19T10:10:45.995Z,97904.34
2023-01-19T10:13:40.751Z,97916.22
2023-01-19T10:16:11.805Z,97912.19
2023-01-19T10:18:47.941Z,97906.72
2023-01-19T10:21:24.983Z,97892.72
2023-01-19T10:23:57.235Z,97903.94
2023-01-19T10:26:27.383Z,97908.88
2023-01-19T10:28:59.137Z,97907.47
2023-01-19T10:31:26.899Z,97906.69
2023-01-19T10:33:54.862Z,97908.06
2023-01-19T10:36:29.461Z,97914.72
2023-01-19T10:38:58.051Z,97917.63
2023-01-19T10:41:39.026Z,97927.53
2023-01-19T10:44:07.334Z,97925.06
2023-01-19T10:46:49.036Z,97930.25
2023-01-19T10:49:27.480Z,97918.91
2023-01-19T10:51:56.504Z,97915.91
2023-01-19T10:54:26.095Z,97920.13
2023-01-19T10:56:58.170Z,97923.59
2023-01-19T10:59:34.164Z,97912.22
2023-01-19T11:02:14.042Z,97906.38
2023-01-19T11:04:42.200Z,97898.63
2023-01-19T11:07:20.397Z,97913.25
2023-01-19T11:09:49.891Z,97914.09
2023-01-19T11:12:22.207Z,97914.50
2023-01-19T11:14:51.256Z,97921.69
2023-01-19T11:17:25.811Z,97930.78
2023-01-19T11:19:59.762Z,97922.63
2023-01-19T11:22:32.933Z,97933.91
2023-01-19T11:25:02.340Z,97929.56
2023-01-19T11:27:31.508Z,97939.09
2023-01-19T11:30:05.029Z,97934.75
2023-01-19T11:32:33.109Z,97933.38
2023-01-19T11:35:00.811Z,97939.88
2023-01-19T11:37:30.714Z,97948.56
2023-01-19T11:39:59.614Z,97938.75
2023-01-19T11:42:30.815Z,97953.72
2023-01-19T11:45:01.693Z,97956.72
2023-01-19T11:47:38.839Z,97960.03
2023-01-19T11:50:14.772Z,97959.44
2023-01-19T11:52:43.250Z,97952.38
2023-01-19T11:55:33.874Z,97949.53
2023-01-19T11:58:03.073Z,97943.41
2023-01-19T12:00:46.884Z,97940.47
2023-01-19T12:03:29.109Z,97950.00
2023-01-19T12:06:07.540Z,97944.97
2023-01-19T12:09:01.645Z,97949.53
2023-01-19T12:11:37.479Z,97956.84
2023-01-19T12:14:15.497Z,97966.13
2023-01-19T12:16:43.821Z,97980.41
2023-01-19T12:19:18.371Z,97988.78
2023-01-19T12:21:46.667Z,97986.69
2023-01-19T12:24:18.601Z,97993.41
2023-01-19T12:27:13.129Z,97994.69
2023-01-19T12:29:44.819Z,97999.41
2023-01-19T12:32:14.945Z,98000.00
2023-01-19T12:34:44.357Z,97998.41
2023-01-19T12:37:27.180Z,97997.28
2023-01-19T12:39:56.946Z,98010.50
2023-01-19T12:42:26.985Z,98013.81
2023-01-19T12:45:44.913Z,98013.91
2023-01-19T12:48:24.769Z,98026.28
2023-01-19T12:50:55.792Z,98034.06
2023-01-19T12:53:23.671Z,98032.28
2023-01-19T12:56:00.635Z,98026.47
2023-01-19T12:58:28.900Z,98030.53
2023-01-19T13:01:15.306Z,98027.84
2023-01-19T13:04:02.214Z,98046.47
2023-01-19T13:06:48.443Z,98055.50
2023-01-19T13:09:39.198Z,98053.66
2023-01-19T13:12:29.101Z,98069.12
2023-01-19T13:15:48.054Z,98078.41
2023-01-19T13:18:29.917Z,98080.37
2023-01-19T13:21:08.744Z,98086.22
2023-01-19T13:23:48.170Z,98091.12
2023-01-19T13:26:18.197Z,98096.84
2023-01-19T13:28:48.890Z,98081.94
2023-01-19T13:31:18.169Z,98103.03
2023-01-19T13:33:58.200Z,98099.81
2023-01-19T13:36:34.167Z,98104.03
2023-01-19T13:39:05.280Z,98105.22
2023-01-19T13:41:35.754Z,98117.59
2023-01-19T13:44:14.702Z,98126.16
2023-01-19T13:46:43.354Z,98124.44
2023-01-19T13:49:31.476Z,98116.06
2023-01-19T13:52:26.123Z,98132.22
2023-01-19T13:55:03.496Z,98131.72
2023-01-19T13:57:44.660Z,98127.09
2023-01-19T14:00:12.600Z,98130.25
2023-01-19T14:02:52.248Z,98137.03
2023-01-19T14:05:24.459Z,98146.50
2023-01-19T14:08:10.542Z,98151.88
2023-01-19T14:10:46.137Z,98163.22
2023-01-19T14:13:17.049Z,98164.50
2023-01-19T14:15:49.622Z,98155.78
2023-01-19T14:18:17.570Z,98166.91
2023-01-19T14:21:05.596Z,98173.78
2023-01-19T14:23:36.321Z,98173.75
2023-01-19T14:26:04.766Z,98162.38
2023-01-19T14:28:32.359Z,98156.34
2023-01-19T14:31:17.591Z,98133.34
2023-01-19T14:33:46.886Z,98154.16
2023-01-19T14:36:17.507Z,98171.53
2023-01-19T14:38:47.431Z,98172.97
2023-01-19T14:41:36.067Z,98186.63
2023-01-19T14:44:09.346Z,98196.09
2023-01-19T14:46:37.525Z,98194.59
2023-01-19T14:49:06.521Z,98199.41
2023-01-19T14:51:34.140Z,98201.28
2023-01-19T14:54:02.256Z,98218.78
2023-01-19T14:56:31.804Z,98218.22
2023-01-19T14:59:01.478Z,98227.25
2023-01-19T15:01:30.080Z,98229.84
2023-01-19T15:03:58.235Z,98226.00
2023-01-19T15:06:26.422Z,98235.91
2023-01-19T15:08:54.641Z,98248.78
2023-01-19T15:11:23.604Z,98257.13
2023-01-19T15:13:51.495Z,98264.97
2023-01-19T15:16:19.549Z,98275.09
2023-01-19T15:18:47.484Z,98276.75
2023-01-19T15:21:16.369Z,98266.62
2023-01-19T15:23:47.529Z,98262.09
2023-01-19T15:26:17.871Z,98252.47
2023-01-19T15:28:46.324Z,98246.00
2023-01-19T15:31:16.059Z,98230.88
2023-01-19T15:33:44.153Z,98226.28
2023-01-19T15:36:17.860Z,98231.09
2023-01-19T15:38:46.792Z,98246.47
2023-01-19T15:41:15.567Z,98251.47
2023-01-19T15:43:43.267Z,98256.00
2023-01-19T15:46:13.409Z,98255.78
2023-01-19T15:48:41.920Z,98250.81
2023-01-19T15:51:13.622Z,98253.28
2023-01-19T15:53:41.697Z,98267.91
2023-01-19T15:56:17.320Z,98280.88
2023-01-19T15:58:46.124Z,98301.94
2023-01-19T16:01:19.261Z,98310.59
2023-01-19T16:03:47.543Z,98325.56
2023-01-19T16:06:15.305Z,98331.28
2023-01-19T16:08:43.015Z,98337.75
2023-01-19T16:11:13.814Z,98353.22
2023-01-19T16:13:45.278Z,98353.28
2023-01-19T16:16:18.624Z,98351.72
2023-01-19T16:18:46.700Z,98364.47
2023-01-19T16:21:14.713Z,98373.12
2023-01-19T16:23:45.039Z,98372.78
2023-01-19T16:26:30.819Z,98358.81
2023-01-19T16:29:04.089Z,98350.47
2023-01-19T16:31:34.135Z,98367.88
2023-01-19T16:34:02.412Z,98362.94
2023-01-19T16:36:32.251Z,98367.50
2023-01-19T16:39:01.594Z,98379.69
2023-01-19T16:41:29.640Z,98383.47
2023-01-19T16:43:57.895Z,98389.94
2023-01-19T16:46:27.934Z,98390.22
2023-01-19T16:49:01.498Z,98392.72
2023-01-19T16:51:29.630Z,98397.03
2023-01-19T16:53:57.680Z,98401.34
2023-01-19T16:56:25.454Z,98402.94
2023-01-19T16:58:57.360Z,98407.94
2023-01-19T17:01:27.470Z,98413.50
2023-01-19T17:03:55.689Z,98410.59
2023-01-19T17:06:24.124Z,98411.88
2023-01-19T17:08:52.900Z,98420.97
2023-01-19T17:11:30.896Z,98433.88
2023-01-19T17:14:01.822Z,98436.53
2023-01-19T17:16:30.919Z,98435.06
2023-01-19T17:19:04.698Z,98443.50
2023-01-19T17:21:33.157Z,98446.13
2023-01-19T17:24:01.064Z,98450.31
2023-01-19T17:26:31.879Z,98459.75
2023-01-19T17:29:00.844Z,98459.16
2023-01-19T17:31:29.359Z,98471.13
2023-01-19T17:33:57.704Z,98476.94
2023-01-19T17:36:27.919Z,98483.34
2023-01-19T17:38:58.096Z,98481.44
2023-01-19T17:41:31.271Z,98490.94
2023-01-19T17:43:59.999Z,98492.78
2023-01-19T17:46:28.965Z,98491.72
2023-01-19T17:49:05.031Z,98491.50
2023-01-19T17:51:33.815Z,98497.38
2023-01-19T17:54:01.874Z,98507.47
2023-01-19T17:56:30.526Z,98506.87
2023-01-19T17:58:59.270Z,98497.00
2023-01-19T18:01:29.502Z,98496.59
2023-01-19T18:03:58.309Z,98501.66
2023-01-19T18:06:26.454Z,98499.75
2023-01-19T18:08:56.588Z,98494.31
2023-01-19T18:11:25.502Z,98489.84
2023-01-19T18:13:53.952Z,98494.94
2023-01-19T18:16:26.336Z,98483.75
2023-01-19T18:18:55.162Z,98489.47
2023-01-19T18:21:25.597Z,98487.56
2023-01-19T18:23:59.490Z,98498.81
2023-01-19T18:26:28.213Z,98509.34
2023-01-19T18:28:57.285Z,98512.56
2023-01-19T18:31:26.561Z,98517.59
2023-01-19T18:33:55.157Z,98526.41
2023-01-19T18:36:23.184Z,98518.81
2023-01-19T18:38:51.357Z,98521.69
2023-01-19T18:41:21.316Z,98524.63
2023-01-19T18:43:49.825Z,98522.84
2023-01-19T18:46:19.953Z,98531.00
2023-01-19T18:48:48.236Z,98530.00
2023-01-19T18:51:18.678Z,98530.81
2023-01-19T18:53:46.645Z,98531.91
2023-01-19T18:56:15.549Z,98526.72
2023-01-19T18:58:43.722Z,98536.03
2023-01-19T19:01:23.907Z,98524.34
2023-01-19T19:03:53.765Z,98534.78
2023-01-19T19:06:22.301Z,98540.91
2023-01-19T19:08:51.267Z,98540.59
2023-01-19T19:11:20.924Z,98547.91
2023-01-19T19:13:57.315Z,98547.19
2023-01-19T19:16:25.778Z,98553.22
2023-01-19T19:18:53.733Z,98552.16
2023-01-19T19:21:23.241Z,98545.69
2023-01-19T19:23:53.728Z,98540.09
2023-01-19T19:26:22.408Z,98547.56
2023-01-19T19:28:50.423Z,98545.37
2023-01-19T19:31:19.945Z,98545.34
2023-01-19T19:33:48.684Z,98561.88
2023-01-19T19:36:16.992Z,98557.41
2023-01-19T19:38:45.340Z,98559.19
2023-01-19T19:41:15.864Z,98572.44
2023-01-19T19:43:44.086Z,98587.47
2023-01-19T19:46:15.646Z,98590.75
2023-01-19T19:48:43.518Z,98588.31
2023-01-19T19:51:18.818Z,98597.81
2023-01-19T19:53:50.159Z,98605.87
2023-01-19T19:56:20.854Z,98605.06
2023-01-19T19:58:50.596Z,98608.00
2023-01-19T20:01:21.226Z,98613.84
2023-01-19T20:03:49.807Z,98607.47
2023-01-19T20:06:19.994Z,98607.75
2023-01-19T20:08:49.122Z,98601.38
2023-01-19T20:11:25.620Z,98605.34
2023-01-19T20:13:54.056Z,98613.53
2023-01-19T20:16:23.335Z,98613.31
2023-01-19T20:18:53.242Z,98620.41
2023-01-19T20:21:33.630Z,98626.31
2023-01-19T20:24:06.527Z,98627.88
2023-01-19T20:26:37.522Z,98624.94
2023-01-19T20:29:06.091Z,98630.81
2023-01-19T20:31:36.979Z,98640.34
2023-01-19T20:34:08.147Z,98637.94
2023-01-19T20:36:36.092Z,98633.19
2023-01-19T20:39:04.435Z,98625.78
2023-01-19T20:41:32.694Z,98624.97
2023-01-19T20:44:00.339Z,98629.47
2023-01-19T20:46:28.316Z,98629.94
2023-01-19T20:48:56.460Z,98626.53
2023-01-19T20:51:24.334Z,98627.59
2023-01-19T20:53:52.393Z,98632.38
2023-01-19T20:56:20.493Z,98633.69
2023-01-19T20:58:48.425Z,98630.22
2023-01-19T21:01:17.971Z,98643.47
2023-01-19T21:03:48.051Z,98643.75
2023-01-19T21:06:16.608Z,98631.28
2023-01-19T21:08:44.630Z,98630.22
2023-01-19T21:11:14.647Z,98624.38
2023-01-19T21:13:42.217Z,98622.25
2023-01-19T21:16:10.452Z,98629.41
2023-01-19T21:18:39.416Z,98623.31
2023-01-19T21:21:12.671Z,98634.94
2023-01-19T21:23:46.360Z,98645.56
2023-01-19T21:26:14.737Z,98654.06
2023-01-19T21:28:43.154Z,98673.94
2023-01-19T21:31:13.525Z,98668.13
2023-01-19T21:33:42.482Z,98666.84
2023-01-19T21:36:10.702Z,98675.59
2023-01-19T21:38:39.328Z,98709.25
2023-01-19T21:41:09.291Z,98736.03
2023-01-19T21:43:38.340Z,98747.44
2023-01-19T21:46:13.020Z,98737.34
2023-01-19T21:48:41.722Z,98720.81
2023-01-19T21:51:10.051Z,98702.00
2023-01-19T21:53:37.853Z,98702.31
2023-01-19T21:56:07.100Z,98706.56
2023-01-19T21:58:35.378Z,98717.44
2023-01-19T22:01:06.241Z,98733.59
2023-01-19T22:03:34.427Z,98735.47
2023-01-19T22:06:06.803Z,98735.44
2023-01-19T22:08:35.184Z,98716.09
2023-01-19T22:11:09.534Z,98708.84
2023-01-19T22:13:38.088Z,98704.66
2023-01-19T22:16:08.291Z,98708.97
2023-01-19T22:18:40.789Z,98716.62
2023-01-19T22:21:33.520Z,98710.28
2023-01-19T22:24:02.633Z,98709.69
2023-01-19T22:26:31.885Z,98712.53
2023-01-19T22:29:01.801Z,98722.13
2023-01-19T22:31:30.826Z,98711.78
2023-01-19T22:33:58.862Z,98721.34
2023-01-19T22:36:26.643Z,98722.44
2023-01-19T22:39:04.142Z,98730.16
2023-01-19T22:41:37.045Z,98729.59
2023-01-19T22:44:07.852Z,98721.41
2023-01-19T22:46:37.015Z,98720.63
2023-01-19T22:49:06.553Z,98715.34
2023-01-19T22:51:34.935Z,98710.81
2023-01-19T22:54:02.686Z,98701.53
2023-01-19T22:56:33.631Z,98702.59
2023-01-19T22:59:01.379Z,98694.91
2023-01-19T23:01:30.482Z,98689.59
2023-01-19T23:03:59.247Z,98678.22
2023-01-19T23:06:29.394Z,98679.50
2023-01-19T23:08:59.523Z,98682.16
2023-01-19T23:11:30.238Z,98680.84
2023-01-19T23:13:58.401Z,98674.75
2023-01-19T23:16:26.301Z,98682.94
2023-01-19T23:18:55.917Z,98680.56
2023-01-19T23:21:26.282Z,98674.44
2023-01-19T23:23:59.284Z,98670.16
2023-01-19T23:26:28.376Z,98678.09
2023-01-19T23:29:01.448Z,98673.13
2023-01-19T23:31:31.715Z,98677.09
2023-01-19T23:34:01.995Z,98675.25
2023-01-19T23:36:31.979Z,98677.09
2023-01-19T23:39:02.397Z,98681.84
2023-01-19T23:41:31.763Z,98678.12
2023-01-19T23:43:59.499Z,98675.75
2023-01-19T23:46:27.820Z,98682.91
2023-01-19T23:48:56.032Z,98683.37
2023-01-19T23:51:25.671Z,98685.53
2023-01-19T23:53:54.153Z,98686.91
2023-01-19T23:56:25.130Z,98685.59
2023-01-19T23:59:02.691Z,98679.47
